TimeCST,TemperatureF,Dew PointF,Humidity,Sea Level PressureIn,VisibilityMPH,Wind Direction,Wind SpeedMPH,Gust SpeedMPH,PrecipitationIn,Events,Conditions,WindDirDegrees,DateUTC
12:15 AM,36.1,33.1,89,29.91,7.0,SW,15.0,20.7,N/A,,Overcast,220,2013-01-06 06:15:00
12:35 AM,35.1,32.0,89,29.91,7.0,WSW,15.0,19.6,N/A,,Overcast,240,2013-01-06 06:35:00
12:55 AM,33.8,30.2,87,29.91,10.0,WSW,12.7,19.6,N/A,,Overcast,250,2013-01-06 06:55:00
1:15 AM,33.8,30.0,86,29.92,10.0,WSW,17.3,-,N/A,,Overcast,240,2013-01-06 07:15:00
1:35 AM,32.5,27.9,83,29.92,10.0,SW,12.7,19.6,N/A,,Overcast,230,2013-01-06 07:35:00
1:55 AM,31.5,26.8,83,29.94,10.0,West,16.1,21.9,N/A,,Mostly Cloudy,270,2013-01-06 07:55:00
2:15 AM,28.9,23.2,79,29.95,10.0,West,12.7,-,N/A,,Mostly Cloudy,260,2013-01-06 08:15:00
2:35 AM,27.5,22.6,82,29.95,10.0,WSW,16.1,20.7,N/A,,Overcast,240,2013-01-06 08:35:00
2:55 AM,26.6,21.7,82,29.95,10.0,WSW,10.4,-,N/A,,Overcast,240,2013-01-06 08:55:00
3:35 AM,24.8,20.5,84,29.97,10.0,WSW,12.7,-,N/A,,Mostly Cloudy,250,2013-01-06 09:35:00
3:55 AM,23.9,19.6,84,29.98,10.0,WSW,8.1,-,N/A,,Scattered Clouds,250,2013-01-06 09:55:00
4:15 AM,23.7,19.4,84,29.98,10.0,West,11.5,17.3,N/A,,Mostly Cloudy,260,2013-01-06 10:15:00
4:35 AM,23.7,19.4,84,29.98,10.0,West,12.7,17.3,N/A,,Scattered Clouds,260,2013-01-06 10:35:00
4:55 AM,21.9,17.1,82,29.99,10.0,West,15.0,-,N/A,,Clear,260,2013-01-06 10:55:00
5:15 AM,21.2,15.8,80,30.00,10.0,West,11.5,-,N/A,,Clear,260,2013-01-06 11:15:00
5:35 AM,21.2,16.7,83,30.00,10.0,West,11.5,-,N/A,,Clear,260,2013-01-06 11:35:00
5:55 AM,21.2,16.7,83,30.02,10.0,West,15.0,-,N/A,,Clear,270,2013-01-06 11:55:00
6:15 AM,21.2,16.7,83,30.03,10.0,West,13.8,19.6,N/A,,Mostly Cloudy,260,2013-01-06 12:15:00
6:35 AM,21.2,16.7,83,30.04,10.0,West,16.1,-,N/A,,Mostly Cloudy,270,2013-01-06 12:35:00
6:55 AM,19.9,15.4,83,30.05,10.0,West,13.8,-,N/A,,Mostly Cloudy,260,2013-01-06 12:55:00
7:15 AM,19.9,15.4,83,30.05,10.0,West,12.7,17.3,N/A,,Overcast,270,2013-01-06 13:15:00
7:35 AM,19.4,15.8,86,30.06,10.0,West,13.8,-,N/A,,Scattered Clouds,270,2013-01-06 13:35:00
7:55 AM,19.9,15.6,83,30.08,10.0,West,17.3,-,N/A,,Mostly Cloudy,270,2013-01-06 13:55:00
8:15 AM,19.9,15.6,83,30.09,10.0,West,15.0,-,N/A,,Scattered Clouds,270,2013-01-06 14:15:00
8:35 AM,20.7,16.5,84,30.10,7.0,West,15.0,19.6,N/A,,Mostly Cloudy,270,2013-01-06 14:35:00
8:55 AM,21.2,17.2,85,30.11,7.0,West,11.5,-,N/A,,Overcast,270,2013-01-06 14:55:00
9:15 AM,21.2,17.6,86,30.11,7.0,West,11.5,-,N/A,,Overcast,280,2013-01-06 15:15:00
9:35 AM,23.2,19.0,84,30.12,7.0,West,15.0,-,N/A,,Overcast,270,2013-01-06 15:35:00
9:55 AM,23.7,19.2,83,30.14,10.0,West,13.8,-,N/A,,Scattered Clouds,280,2013-01-06 15:55:00
10:15 AM,23.7,18.5,80,30.14,10.0,West,16.1,-,N/A,,Clear,280,2013-01-06 16:15:00
10:35 AM,23.7,18.9,82,30.15,10.0,West,12.7,-,N/A,,Clear,270,2013-01-06 16:35:00
10:55 AM,24.4,19.2,81,30.16,10.0,West,13.8,20.7,N/A,,Clear,270,2013-01-06 16:55:00
11:15 AM,24.8,19.6,81,30.17,10.0,West,15.0,-,N/A,,Clear,270,2013-01-06 17:15:00
11:35 AM,24.8,19.4,80,30.17,10.0,West,19.6,24.2,N/A,,Clear,270,2013-01-06 17:35:00
11:55 AM,25.5,19.9,79,30.17,10.0,West,13.8,20.7,N/A,,Clear,270,2013-01-06 17:55:00
12:15 PM,26.2,20.5,79,30.17,10.0,WNW,11.5,17.3,N/A,,Clear,290,2013-01-06 18:15:00
12:35 PM,26.2,20.3,78,30.17,10.0,West,13.8,19.6,N/A,,Clear,280,2013-01-06 18:35:00
12:55 PM,26.4,20.3,78,30.17,10.0,West,17.3,21.9,N/A,,Clear,280,2013-01-06 18:55:00
1:15 PM,26.2,20.3,78,30.19,7.0,West,16.1,-,N/A,,Clear,280,2013-01-06 19:15:00
1:35 PM,26.2,20.7,79,30.19,10.0,WNW,13.8,19.6,N/A,,Clear,290,2013-01-06 19:35:00
1:55 PM,26.2,20.5,79,30.19,10.0,West,12.7,-,N/A,,Clear,270,2013-01-06 19:55:00
2:15 PM,26.2,20.7,79,30.19,10.0,WNW,6.9,-,N/A,,Clear,290,2013-01-06 20:15:00
2:35 PM,26.6,21.2,80,30.20,7.0,West,8.1,-,N/A,,Clear,270,2013-01-06 20:35:00
2:55 PM,26.2,20.3,78,30.21,10.0,West,4.6,-,N/A,,Clear,270,2013-01-06 20:55:00
3:35 PM,26.2,20.7,79,30.24,7.0,West,9.2,-,N/A,,Clear,270,2013-01-06 21:35:00
3:55 PM,25.5,20.1,80,30.25,7.0,West,8.1,-,N/A,,Clear,280,2013-01-06 21:55:00
4:15 PM,24.8,19.9,82,30.26,7.0,Calm,Calm,-,N/A,,Clear,0,2013-01-06 22:15:00
4:35 PM,23.7,19.2,83,30.26,7.0,West,3.5,-,N/A,,Clear,260,2013-01-06 22:35:00
4:55 PM,23.7,19.4,84,30.27,7.0,WSW,4.6,-,N/A,,Clear,240,2013-01-06 22:55:00
5:15 PM,23.7,19.4,84,30.28,7.0,Calm,Calm,-,N/A,,Clear,0,2013-01-06 23:15:00
5:35 PM,21.9,18.0,85,30.28,10.0,WSW,3.5,-,N/A,,Clear,250,2013-01-06 23:35:00
5:55 PM,21.2,17.4,85,30.28,10.0,Calm,Calm,-,N/A,,Clear,0,2013-01-06 23:55:00
6:15 PM,21.2,17.2,85,30.29,10.0,WSW,5.8,-,N/A,,Clear,240,2013-01-07 00:15:00
6:35 PM,21.2,16.7,83,30.29,10.0,WSW,4.6,-,N/A,,Clear,240,2013-01-07 00:35:00
6:55 PM,20.7,16.3,83,30.30,10.0,SSW,3.5,-,N/A,,Clear,200,2013-01-07 00:55:00
7:15 PM,18.7,14.9,85,30.29,10.0,SSW,4.6,-,N/A,,Clear,210,2013-01-07 01:15:00
7:35 PM,18.5,14.5,85,30.30,10.0,SSW,5.8,-,N/A,,Clear,200,2013-01-07 01:35:00
7:55 PM,19.4,14.0,80,30.30,10.0,SSW,5.8,-,N/A,,Clear,210,2013-01-07 01:55:00
8:15 PM,18.5,14.5,85,30.30,10.0,SSW,5.8,-,N/A,,Clear,210,2013-01-07 02:15:00
8:35 PM,19.4,14.0,80,30.29,10.0,SSW,4.6,-,N/A,,Clear,200,2013-01-07 02:35:00
8:55 PM,16.3,12.0,83,30.30,10.0,SSW,6.9,-,N/A,,Clear,200,2013-01-07 02:55:00
9:15 PM,19.4,14.0,80,30.31,10.0,SSW,5.8,-,N/A,,Clear,210,2013-01-07 03:15:00
9:35 PM,18.5,14.4,84,30.31,10.0,SSW,5.8,-,N/A,,Clear,210,2013-01-07 03:35:00
9:55 PM,18.5,14.5,85,30.30,10.0,SSW,8.1,-,N/A,,Clear,200,2013-01-07 03:55:00
10:15 PM,17.6,12.2,79,30.31,10.0,SSW,5.8,-,N/A,,Clear,200,2013-01-07 04:15:00
10:35 PM,16.2,11.8,83,30.30,10.0,SSW,6.9,-,N/A,,Clear,200,2013-01-07 04:35:00
10:55 PM,16.2,12.0,84,30.31,10.0,SSW,5.8,-,N/A,,Clear,200,2013-01-07 04:55:00
11:15 PM,17.6,12.2,79,30.31,10.0,SSW,3.5,-,N/A,,Clear,200,2013-01-07 05:15:00
11:35 PM,16.2,12.0,84,30.30,10.0,SSW,4.6,-,N/A,,Clear,200,2013-01-07 05:35:00
11:55 PM,13.6,9.5,84,30.30,10.0,SSE,4.6,-,N/A,,Clear,160,2013-01-07 05:55:00